createdAt,value
2023-01-01T00:00:41.891Z,986.91
2023-01-01T00:01:41.887Z,986.92
2023-01-01T00:02:41.802Z,986.93
2023-01-01T00:03:41.834Z,986.93
2023-01-01T00:04:41.795Z,986.92
2023-01-01T00:05:41.782Z,986.94
2023-01-01T00:06:41.763Z,986.95
2023-01-01T00:07:41.764Z,986.91
2023-01-01T00:08:41.750Z,986.87
2023-01-01T00:09:41.734Z,986.91
2023-01-01T00:10:41.721Z,986.95
2023-01-01T00:11:41.704Z,986.92
2023-01-01T00:12:41.717Z,986.95
2023-01-01T00:13:41.704Z,986.93
2023-01-01T00:14:41.675Z,987.00
2023-01-01T00:15:41.674Z,987.04
2023-01-01T00:16:41.858Z,986.97
2023-01-01T00:17:41.658Z,987.11
2023-01-01T00:18:41.653Z,987.01
2023-01-01T00:19:41.629Z,987.06
2023-01-01T00:20:41.622Z,987.06
2023-01-01T00:21:41.624Z,987.03
2023-01-01T00:22:54.516Z,987.06
2023-01-01T00:23:42.597Z,986.97
2023-01-01T00:24:41.577Z,987.03
2023-01-01T00:25:41.591Z,987.00
2023-01-01T00:26:41.547Z,987.01
2023-01-01T00:27:41.546Z,987.03
2023-01-01T00:28:41.522Z,987.06
2023-01-01T00:29:41.546Z,987.05
2023-01-01T00:30:41.489Z,987.01
2023-01-01T00:31:41.554Z,987.02
2023-01-01T00:32:41.475Z,986.95
2023-01-01T00:33:41.473Z,986.99
2023-01-01T00:34:41.507Z,986.97
2023-01-01T00:35:41.472Z,986.92
2023-01-01T00:36:41.457Z,987.02
2023-01-01T00:37:46.508Z,986.93
2023-01-01T00:38:42.409Z,986.93
2023-01-01T00:39:41.410Z,986.93
2023-01-01T00:40:41.398Z,986.95
2023-01-01T00:41:41.405Z,986.94
2023-01-01T00:42:41.361Z,986.94
2023-01-01T00:43:41.382Z,986.93
2023-01-01T00:44:41.359Z,986.91
2023-01-01T00:45:41.403Z,986.92
2023-01-01T00:46:41.344Z,986.93
2023-01-01T00:47:41.329Z,986.83
2023-01-01T00:48:41.329Z,986.95
2023-01-01T00:49:41.303Z,986.93
2023-01-01T00:50:41.323Z,987.01
2023-01-01T00:51:41.302Z,986.88
2023-01-01T00:52:41.253Z,986.88
2023-01-01T00:53:41.274Z,986.88
2023-01-01T00:54:41.241Z,986.91
2023-01-01T00:55:41.229Z,986.92
2023-01-01T00:56:41.232Z,986.96
2023-01-01T00:57:41.238Z,987.01
2023-01-01T00:58:41.212Z,987.08
2023-01-01T00:59:41.184Z,986.99
2023-01-01T01:00:41.186Z,986.99
2023-01-01T01:01:41.350Z,987.00
2023-01-01T01:02:41.564Z,987.05
2023-01-01T01:03:41.170Z,987.00
2023-01-01T01:04:41.145Z,987.01
2023-01-01T01:05:41.116Z,986.99
2023-01-01T01:06:41.120Z,987.02
2023-01-01T01:07:41.125Z,987.05
2023-01-01T01:08:41.086Z,987.05
2023-01-01T01:09:41.076Z,987.00
2023-01-01T01:10:41.060Z,987.02
2023-01-01T01:11:41.066Z,986.96
2023-01-01T01:12:41.057Z,986.96
2023-01-01T01:13:41.057Z,986.94
2023-01-01T01:14:41.018Z,987.00
2023-01-01T01:15:41.026Z,987.02
2023-01-01T01:16:41.028Z,987.02
2023-01-01T01:17:40.998Z,987.01
2023-01-01T01:18:41.012Z,987.06
2023-01-01T01:19:41.011Z,987.06
2023-01-01T01:20:40.961Z,987.11
2023-01-01T01:21:40.964Z,987.10
2023-01-01T01:22:40.974Z,987.10
2023-01-01T01:23:40.928Z,987.12
2023-01-01T01:24:40.934Z,987.13
2023-01-01T01:25:40.912Z,987.19
2023-01-01T01:26:40.890Z,987.13
2023-01-01T01:27:40.919Z,987.10
2023-01-01T01:28:47.120Z,987.06
2023-01-01T01:29:41.872Z,987.05
2023-01-01T01:30:40.914Z,987.09
2023-01-01T01:31:40.840Z,987.07
2023-01-01T01:32:40.856Z,987.10
2023-01-01T01:33:40.829Z,987.08
2023-01-01T01:34:40.818Z,987.05
2023-01-01T01:35:40.808Z,987.07
2023-01-01T01:36:40.782Z,987.07
2023-01-01T01:37:40.811Z,987.06
2023-01-01T01:38:40.776Z,986.99
2023-01-01T01:39:40.789Z,986.99
2023-01-01T01:40:40.744Z,986.96
2023-01-01T01:41:40.732Z,987.04
2023-01-01T01:42:40.756Z,987.08
2023-01-01T01:43:40.728Z,987.07
2023-01-01T01:44:40.695Z,987.06
2023-01-01T01:45:40.718Z,987.09
2023-01-01T01:46:40.693Z,987.02
2023-01-01T01:47:40.731Z,987.09
2023-01-01T01:48:40.672Z,987.06
2023-01-01T01:49:40.656Z,987.10
2023-01-01T01:50:40.639Z,987.15
2023-01-01T01:51:40.642Z,987.20
2023-01-01T01:52:40.638Z,987.13
2023-01-01T01:53:40.615Z,987.20
2023-01-01T01:54:40.603Z,987.19
2023-01-01T01:55:40.582Z,987.22
2023-01-01T01:56:40.587Z,987.19
2023-01-01T01:57:40.561Z,987.24
2023-01-01T01:58:40.583Z,987.22
2023-01-01T01:59:40.554Z,987.18
2023-01-01T02:00:40.564Z,987.19
2023-01-01T02:01:40.635Z,987.21
2023-01-01T02:02:40.737Z,987.20
2023-01-01T02:03:40.548Z,987.17
2023-01-01T02:04:40.476Z,987.23
2023-01-01T02:05:40.489Z,987.23
2023-01-01T02:06:40.465Z,987.24
2023-01-01T02:07:40.459Z,987.24
2023-01-01T02:08:40.474Z,987.28
2023-01-01T02:09:40.460Z,987.18
2023-01-01T02:10:40.418Z,987.25
2023-01-01T02:11:40.429Z,987.22
2023-01-01T02:12:40.407Z,987.24
2023-01-01T02:13:40.418Z,987.22
2023-01-01T02:14:40.406Z,987.13
2023-01-01T02:15:40.419Z,987.15
2023-01-01T02:16:40.349Z,987.10
2023-01-01T02:17:40.329Z,987.10
2023-01-01T02:18:40.342Z,987.18
2023-01-01T02:19:40.319Z,987.17
2023-01-01T02:20:40.345Z,987.17
2023-01-01T02:21:40.314Z,987.28
2023-01-01T02:22:40.300Z,987.18
2023-01-01T02:23:40.286Z,987.22
2023-01-01T02:24:40.259Z,987.22
2023-01-01T02:25:40.263Z,987.20
2023-01-01T02:26:40.239Z,987.20
2023-01-01T02:27:40.231Z,987.16
2023-01-01T02:28:40.232Z,987.20
2023-01-01T02:29:40.205Z,987.16
2023-01-01T02:30:40.272Z,987.15
2023-01-01T02:31:40.256Z,987.19
2023-01-01T02:32:40.181Z,987.18
2023-01-01T02:33:40.162Z,987.14
2023-01-01T02:34:40.173Z,987.18
2023-01-01T02:35:40.153Z,987.11
2023-01-01T02:36:40.133Z,987.17
2023-01-01T02:37:40.134Z,987.16
2023-01-01T02:38:40.125Z,987.16
2023-01-01T02:39:40.124Z,987.20
2023-01-01T02:40:40.093Z,987.19
2023-01-01T02:41:40.095Z,987.17
2023-01-01T02:42:40.088Z,987.22
2023-01-01T02:43:40.077Z,987.21
2023-01-01T02:44:40.084Z,987.21
2023-01-01T02:45:40.064Z,987.21
2023-01-01T02:46:40.035Z,987.26
2023-01-01T02:47:40.023Z,987.27
2023-01-01T02:48:40.070Z,987.23
2023-01-01T02:49:39.987Z,987.27
2023-01-01T02:50:39.997Z,987.29
2023-01-01T02:51:40.000Z,987.28
2023-01-01T02:52:39.965Z,987.32
2023-01-01T02:53:39.956Z,987.26
2023-01-01T02:54:39.938Z,987.23
2023-01-01T02:55:39.926Z,987.23
2023-01-01T02:56:39.940Z,987.30
2023-01-01T02:57:39.977Z,987.30
2023-01-01T02:58:39.908Z,987.36
2023-01-01T02:59:39.904Z,987.37
2023-01-01T03:00:39.895Z,987.34
2023-01-01T03:01:39.933Z,987.34
2023-01-01T03:02:43.802Z,987.34
2023-01-01T03:03:40.885Z,987.39
2023-01-01T03:04:39.849Z,987.37
2023-01-01T03:05:39.819Z,987.48
2023-01-01T03:06:39.829Z,987.47
2023-01-01T03:07:39.814Z,987.52
2023-01-01T03:08:39.807Z,987.44
2023-01-01T03:09:39.799Z,987.40
2023-01-01T03:10:39.771Z,987.46
2023-01-01T03:11:39.807Z,987.39
2023-01-01T03:12:40.034Z,987.38
2023-01-01T03:13:39.743Z,987.44
2023-01-01T03:14:39.740Z,987.39
2023-01-01T03:15:39.808Z,987.43
2023-01-01T03:16:39.720Z,987.50
2023-01-01T03:17:39.704Z,987.51
2023-01-01T03:18:39.703Z,987.51
2023-01-01T03:19:39.673Z,987.54
2023-01-01T03:20:39.687Z,987.55
2023-01-01T03:21:39.662Z,987.56
2023-01-01T03:23:15.996Z,987.60
2023-01-01T03:24:15.955Z,987.58
2023-01-01T03:25:15.975Z,987.57
2023-01-01T03:26:15.952Z,987.59
2023-01-01T03:27:15.953Z,987.68
2023-01-01T03:28:15.944Z,987.65
2023-01-01T03:29:15.926Z,987.59
2023-01-01T03:30:15.926Z,987.70
2023-01-01T03:31:15.957Z,987.65
2023-01-01T03:32:15.892Z,987.72
2023-01-01T03:33:15.883Z,987.68
2023-01-01T03:34:15.867Z,987.77
2023-01-01T03:35:15.867Z,987.76
2023-01-01T03:36:15.844Z,987.76
2023-01-01T03:37:15.846Z,987.85
2023-01-01T03:38:15.815Z,987.84
2023-01-01T03:39:15.829Z,987.90
2023-01-01T03:40:15.792Z,987.83
2023-01-01T03:41:15.789Z,987.87
2023-01-01T03:42:15.789Z,987.85
2023-01-01T03:43:15.770Z,987.93
2023-01-01T03:44:15.777Z,987.86
2023-01-01T03:45:15.748Z,987.87
2023-01-01T03:46:15.787Z,987.88
2023-01-01T03:47:15.731Z,987.89
2023-01-01T03:48:15.714Z,987.89
2023-01-01T03:49:15.740Z,987.90
2023-01-01T03:50:15.700Z,987.90
2023-01-01T03:51:15.699Z,987.87
2023-01-01T03:52:15.680Z,987.85
2023-01-01T03:53:15.675Z,987.83
2023-01-01T03:54:15.665Z,987.79
2023-01-01T03:55:15.640Z,987.80
2023-01-01T03:56:15.620Z,987.82
2023-01-01T03:57:15.631Z,987.79
2023-01-01T03:58:15.621Z,987.77
2023-01-01T03:59:15.600Z,987.78
2023-01-01T04:00:15.598Z,987.83
2023-01-01T04:01:15.639Z,987.75
2023-01-01T04:02:15.578Z,987.77
2023-01-01T04:03:15.625Z,987.84
2023-01-01T04:04:15.568Z,987.80
2023-01-01T04:05:15.535Z,987.80
2023-01-01T04:06:15.524Z,987.78
2023-01-01T04:07:16.023Z,987.79
2023-01-01T04:08:15.515Z,987.72
2023-01-01T04:09:15.490Z,987.78
2023-01-01T04:10:15.465Z,987.81
2023-01-01T04:11:15.510Z,987.82
2023-01-01T04:12:15.451Z,987.82
2023-01-01T04:13:15.456Z,987.83
2023-01-01T04:14:15.435Z,987.82
2023-01-01T04:15:15.415Z,987.85
2023-01-01T04:16:15.447Z,987.81
2023-01-01T04:17:15.428Z,987.82
2023-01-01T04:18:15.419Z,987.72
2023-01-01T04:19:15.386Z,987.79
2023-01-01T04:20:15.366Z,987.78
2023-01-01T04:21:15.359Z,987.81
2023-01-01T04:22:15.367Z,987.77
2023-01-01T04:23:15.337Z,987.74
2023-01-01T04:24:15.326Z,987.82
2023-01-01T04:25:15.321Z,987.74
2023-01-01T04:26:15.307Z,987.79
2023-01-01T04:27:15.315Z,987.80
2023-01-01T04:28:15.277Z,987.76
2023-01-01T04:29:15.286Z,987.73
2023-01-01T04:30:15.271Z,987.74
2023-01-01T04:31:15.270Z,987.71
2023-01-01T04:32:15.260Z,987.70
2023-01-01T04:33:15.238Z,987.70
2023-01-01T04:34:15.224Z,987.62
2023-01-01T04:35:15.228Z,987.71
2023-01-01T04:36:15.188Z,987.68
2023-01-01T04:37:15.195Z,987.66
2023-01-01T04:38:15.166Z,987.64
2023-01-01T04:39:15.181Z,987.63
2023-01-01T04:40:15.177Z,987.67
2023-01-01T04:41:15.132Z,987.69
2023-01-01T04:42:15.140Z,987.63
2023-01-01T04:43:15.110Z,987.63
2023-01-01T04:44:15.112Z,987.57
2023-01-01T04:45:15.507Z,987.56
2023-01-01T04:46:15.109Z,987.60
2023-01-01T04:47:15.091Z,987.53
2023-01-01T04:48:15.058Z,987.64
2023-01-01T04:49:15.074Z,987.54
2023-01-01T04:50:15.077Z,987.59
2023-01-01T04:51:15.027Z,987.55
2023-01-01T04:52:15.032Z,987.52
2023-01-01T04:53:15.006Z,987.58
2023-01-01T04:54:15.014Z,987.58
2023-01-01T04:55:15.007Z,987.56
2023-01-01T04:56:14.996Z,987.57
2023-01-01T04:57:14.989Z,987.60
2023-01-01T04:58:14.943Z,987.61
2023-01-01T04:59:14.954Z,987.66
2023-01-01T05:00:14.949Z,987.67
2023-01-01T05:01:14.997Z,987.65
2023-01-01T05:02:14.969Z,987.67
2023-01-01T05:03:14.931Z,987.70
2023-01-01T05:04:14.906Z,987.64
2023-01-01T05:05:14.901Z,987.69
2023-01-01T05:06:14.855Z,987.66
2023-01-01T05:07:14.867Z,987.64
2023-01-01T05:08:14.855Z,987.75
2023-01-01T05:09:14.864Z,987.73
2023-01-01T05:10:14.844Z,987.70
2023-01-01T05:11:14.814Z,987.73
2023-01-01T05:12:14.802Z,987.77
2023-01-01T05:13:14.823Z,987.74
2023-01-01T05:14:14.808Z,987.69
2023-01-01T05:15:14.767Z,987.74
2023-01-01T05:16:14.812Z,987.78
2023-01-01T05:17:14.859Z,987.81
2023-01-01T05:18:14.725Z,987.82
2023-01-01T05:19:14.763Z,987.78
2023-01-01T05:20:14.728Z,987.85
2023-01-01T05:21:14.701Z,987.81
2023-01-01T05:22:14.694Z,987.84
2023-01-01T05:23:14.689Z,987.82
2023-01-01T05:24:14.670Z,987.89
2023-01-01T05:25:14.680Z,987.86
2023-01-01T05:26:14.660Z,987.87
2023-01-01T05:27:14.640Z,987.90
2023-01-01T05:28:14.629Z,987.94
2023-01-01T05:29:16.829Z,987.93
2023-01-01T05:30:14.620Z,987.96
2023-01-01T05:31:14.645Z,987.96
2023-01-01T05:32:46.710Z,987.96
2023-01-01T05:33:46.760Z,987.97
2023-01-01T05:34:46.717Z,987.98
2023-01-01T05:35:46.707Z,987.93
2023-01-01T05:36:46.688Z,987.89
2023-01-01T05:37:46.680Z,987.93
2023-01-01T05:38:46.692Z,987.93
2023-01-01T05:39:46.644Z,987.93
2023-01-01T05:40:46.670Z,987.93
2023-01-01T05:41:46.621Z,987.95
2023-01-01T05:42:46.634Z,987.96
2023-01-01T05:43:46.616Z,988.04
2023-01-01T05:44:46.594Z,987.99
2023-01-01T05:45:46.695Z,987.97
2023-01-01T05:46:46.574Z,987.92
2023-01-01T05:47:46.569Z,987.92
2023-01-01T05:48:46.541Z,987.99
2023-01-01T05:49:46.550Z,987.96
2023-01-01T05:50:46.532Z,988.04
2023-01-01T05:51:46.538Z,988.02
2023-01-01T05:52:46.516Z,987.99
2023-01-01T05:53:46.494Z,988.00
2023-01-01T05:54:46.482Z,988.00
2023-01-01T05:55:46.507Z,988.04
2023-01-01T05:56:46.462Z,988.03
2023-01-01T05:57:46.504Z,987.96
2023-01-01T05:58:46.446Z,988.04
2023-01-01T05:59:46.438Z,988.00
2023-01-01T06:00:46.415Z,988.02
2023-01-01T06:01:46.559Z,987.95
2023-01-01T06:02:46.459Z,988.02
2023-01-01T06:03:46.397Z,988.09
2023-01-01T06:04:46.454Z,988.08
2023-01-01T06:05:46.368Z,988.05
2023-01-01T06:06:46.376Z,988.06
2023-01-01T06:07:48.576Z,988.04
2023-01-01T06:08:46.339Z,988.04
2023-01-01T06:09:46.330Z,988.09
2023-01-01T06:10:46.318Z,988.09
2023-01-01T06:11:46.323Z,988.10
2023-01-01T06:12:46.301Z,988.17
2023-01-01T06:13:46.291Z,988.18
2023-01-01T06:14:46.281Z,988.24
2023-01-01T06:15:46.268Z,988.29
2023-01-01T06:16:46.300Z,988.33
2023-01-01T06:17:46.257Z,988.30
2023-01-01T06:18:46.222Z,988.32
2023-01-01T06:19:46.234Z,988.31
2023-01-01T06:20:46.210Z,988.29
2023-01-01T06:21:46.210Z,988.33
2023-01-01T06:22:46.198Z,988.31
2023-01-01T06:23:46.177Z,988.38
2023-01-01T06:24:46.161Z,988.32
2023-01-01T06:25:46.162Z,988.34
2023-01-01T06:26:46.151Z,988.29
2023-01-01T06:27:46.134Z,988.40
2023-01-01T06:28:46.116Z,988.39
2023-01-01T06:29:46.145Z,988.37
2023-01-01T06:30:46.837Z,988.37
2023-01-01T06:31:46.118Z,988.40
2023-01-01T06:32:46.094Z,988.30
2023-01-01T06:33:46.075Z,988.40
2023-01-01T06:34:46.064Z,988.37
2023-01-01T06:35:46.051Z,988.32
2023-01-01T06:36:46.047Z,988.35
2023-01-01T06:37:46.039Z,988.38
2023-01-01T06:38:46.073Z,988.36
2023-01-01T06:39:46.026Z,988.36
2023-01-01T06:40:45.996Z,988.42
2023-01-01T06:41:46.019Z,988.36
2023-01-01T06:42:45.971Z,988.44
2023-01-01T06:43:45.965Z,988.35
2023-01-01T06:44:45.945Z,988.37
2023-01-01T06:45:45.968Z,988.37
2023-01-01T06:46:46.018Z,988.40
2023-01-01T06:47:45.917Z,988.38
2023-01-01T06:48:45.906Z,988.38
2023-01-01T06:49:45.894Z,988.42
2023-01-01T06:50:45.885Z,988.38
2023-01-01T06:51:45.920Z,988.35
2023-01-01T06:52:45.875Z,988.40
2023-01-01T06:53:45.870Z,988.32
2023-01-01T06:54:45.837Z,988.41
2023-01-01T06:55:45.846Z,988.39
2023-01-01T06:56:45.838Z,988.38
2023-01-01T06:57:45.825Z,988.40
2023-01-01T06:58:45.809Z,988.32
2023-01-01T06:59:45.798Z,988.41
2023-01-01T07:00:45.778Z,988.33
2023-01-01T07:01:45.865Z,988.28
2023-01-01T07:02:45.930Z,988.30
2023-01-01T07:03:45.806Z,988.28
2023-01-01T07:04:45.761Z,988.37
2023-01-01T07:05:45.720Z,988.34
2023-01-01T07:06:45.742Z,988.37
2023-01-01T07:07:45.726Z,988.39
2023-01-01T07:08:45.704Z,988.43
2023-01-01T07:09:45.711Z,988.40
2023-01-01T07:10:45.687Z,988.47
2023-01-01T07:11:45.660Z,988.42
2023-01-01T07:12:45.671Z,988.35
2023-01-01T07:13:45.665Z,988.47
2023-01-01T07:14:45.641Z,988.47
2023-01-01T07:15:45.658Z,988.45
2023-01-01T07:16:45.599Z,988.51
2023-01-01T07:17:45.632Z,988.47
2023-01-01T07:18:45.599Z,988.45
2023-01-01T07:19:45.601Z,988.41
2023-01-01T07:20:45.559Z,988.46
2023-01-01T07:21:45.579Z,988.44
2023-01-01T07:22:45.564Z,988.49
2023-01-01T07:23:45.533Z,988.43
2023-01-01T07:24:45.544Z,988.45
2023-01-01T07:25:45.516Z,988.50
2023-01-01T07:26:45.498Z,988.42
2023-01-01T07:27:45.514Z,988.47
2023-01-01T07:28:45.519Z,988.43
2023-01-01T07:29:45.474Z,988.45
2023-01-01T07:30:45.504Z,988.54
2023-01-01T07:31:45.479Z,988.54
2023-01-01T07:32:45.444Z,988.55
2023-01-01T07:33:45.443Z,988.52
2023-01-01T07:34:50.520Z,988.49
2023-01-01T07:35:46.438Z,988.53
2023-01-01T07:36:45.396Z,988.50
2023-01-01T07:37:45.385Z,988.50
2023-01-01T07:38:45.386Z,988.53
2023-01-01T07:39:45.386Z,988.56
2023-01-01T07:40:45.356Z,988.60
2023-01-01T07:41:45.355Z,988.63
2023-01-01T07:42:45.330Z,988.64
2023-01-01T07:43:45.317Z,988.66
2023-01-01T07:44:45.330Z,988.69
2023-01-01T07:45:45.311Z,988.67
2023-01-01T07:46:45.360Z,988.74
2023-01-01T07:47:45.287Z,988.72
2023-01-01T07:48:45.257Z,988.78
2023-01-01T07:49:45.254Z,988.81
2023-01-01T07:50:45.289Z,988.84
2023-01-01T07:51:45.248Z,988.85
2023-01-01T07:52:45.217Z,988.85
2023-01-01T07:53:45.210Z,988.87
2023-01-01T07:54:45.229Z,988.89
2023-01-01T07:55:45.191Z,988.87
2023-01-01T07:56:45.223Z,988.88
2023-01-01T07:57:45.204Z,988.87
2023-01-01T07:58:45.182Z,988.93
2023-01-01T07:59:45.178Z,988.94
2023-01-01T08:00:45.130Z,988.97
2023-01-01T08:01:45.222Z,988.98
2023-01-01T08:02:45.246Z,989.01
2023-01-01T08:03:45.139Z,989.00
2023-01-01T08:04:45.112Z,989.05
2023-01-01T08:05:45.138Z,989.07
2023-01-01T08:06:45.079Z,989.09
2023-01-01T08:07:45.060Z,989.13
2023-01-01T08:08:45.042Z,989.16
2023-01-01T08:09:45.056Z,989.12
2023-01-01T08:10:45.046Z,989.14
2023-01-01T08:11:45.020Z,989.15
2023-01-01T08:12:45.031Z,989.13
2023-01-01T08:13:45.010Z,989.16
2023-01-01T08:14:44.989Z,989.10
2023-01-01T08:15:45.038Z,989.16
2023-01-01T08:16:44.997Z,989.15
2023-01-01T08:17:47.249Z,989.14
2023-01-01T08:18:44.987Z,989.15
2023-01-01T08:19:45.964Z,989.19
2023-01-01T08:20:44.962Z,989.18
2023-01-01T08:21:45.963Z,989.16
2023-01-01T08:22:44.915Z,989.12
2023-01-01T08:23:45.944Z,989.14
2023-01-01T08:24:44.907Z,989.18
2023-01-01T08:25:45.595Z,989.17
2023-01-01T08:26:44.891Z,989.15
2023-01-01T08:27:44.918Z,989.15
2023-01-01T08:28:44.906Z,989.21
2023-01-01T08:29:45.326Z,989.22
2023-01-01T08:30:44.849Z,989.18
2023-01-01T08:31:45.567Z,989.13
2023-01-01T08:32:44.798Z,989.15
2023-01-01T08:33:44.844Z,989.16
2023-01-01T08:34:44.790Z,989.21
2023-01-01T08:35:48.932Z,989.18
2023-01-01T08:36:45.777Z,989.23
2023-01-01T08:37:44.751Z,989.21
2023-01-01T08:38:44.740Z,989.22
2023-01-01T08:39:44.716Z,989.22
2023-01-01T08:40:44.702Z,989.17
2023-01-01T08:41:44.725Z,989.17
2023-01-01T08:42:44.687Z,989.18
2023-01-01T08:43:44.724Z,989.24
2023-01-01T08:44:44.675Z,989.24
2023-01-01T08:45:44.682Z,989.25
2023-01-01T08:46:44.731Z,989.24
2023-01-01T08:47:44.640Z,989.33
2023-01-01T08:48:44.635Z,989.28
2023-01-01T08:49:44.629Z,989.30
2023-01-01T08:50:44.603Z,989.32
2023-01-01T08:51:44.611Z,989.34
2023-01-01T08:52:44.609Z,989.31
2023-01-01T08:53:50.542Z,989.31
2023-01-01T08:54:45.598Z,989.28
2023-01-01T08:55:44.601Z,989.33
2023-01-01T08:56:44.552Z,989.34
2023-01-01T08:57:44.543Z,989.27
2023-01-01T08:58:44.532Z,989.34
2023-01-01T08:59:44.525Z,989.37
2023-01-01T09:00:44.515Z,989.38
2023-01-01T09:01:44.782Z,989.35
2023-01-01T09:02:44.599Z,989.41
2023-01-01T09:03:44.481Z,989.29
2023-01-01T09:04:44.481Z,989.27
2023-01-01T09:05:44.444Z,989.34
2023-01-01T09:06:44.437Z,989.35
2023-01-01T09:07:44.473Z,989.29
2023-01-01T09:08:44.413Z,989.34
2023-01-01T09:09:44.414Z,989.34
2023-01-01T09:10:44.396Z,989.28
2023-01-01T09:11:44.388Z,989.27
2023-01-01T09:12:44.395Z,989.29
2023-01-01T09:13:44.359Z,989.37
2023-01-01T09:14:44.388Z,989.34
2023-01-01T09:15:44.335Z,989.34
2023-01-01T09:16:44.567Z,989.34
2023-01-01T09:17:44.344Z,989.31
2023-01-01T09:18:44.332Z,989.33
2023-01-01T09:19:44.313Z,989.29
2023-01-01T09:20:44.290Z,989.37
2023-01-01T09:21:44.276Z,989.43
2023-01-01T09:22:44.282Z,989.41
2023-01-01T09:23:44.261Z,989.42
2023-01-01T09:24:44.264Z,989.35
2023-01-01T09:25:44.240Z,989.42
2023-01-01T09:26:44.229Z,989.34
2023-01-01T09:27:44.197Z,989.41
2023-01-01T09:28:44.205Z,989.41
2023-01-01T09:29:44.196Z,989.36
2023-01-01T09:30:44.205Z,989.35
2023-01-01T09:31:44.241Z,989.37
2023-01-01T09:32:44.158Z,989.30
2023-01-01T09:33:44.156Z,989.34
2023-01-01T09:34:50.383Z,989.34
2023-01-01T09:35:45.136Z,989.39
2023-01-01T09:36:44.122Z,989.36
2023-01-01T09:37:44.122Z,989.37
2023-01-01T09:38:44.105Z,989.35
2023-01-01T09:39:44.072Z,989.36
2023-01-01T09:40:50.803Z,989.37
2023-01-01T09:41:45.055Z,989.42
2023-01-01T09:42:44.087Z,989.37
2023-01-01T09:43:44.051Z,989.42
2023-01-01T09:44:44.038Z,989.52
2023-01-01T09:45:44.036Z,989.50
2023-01-01T09:46:44.002Z,989.40
2023-01-01T09:47:44.010Z,989.47
2023-01-01T09:48:43.982Z,989.48
2023-01-01T09:49:43.972Z,989.44
2023-01-01T09:50:43.997Z,989.50
2023-01-01T09:51:50.079Z,989.47
2023-01-01T09:52:44.959Z,989.45
2023-01-01T09:53:43.933Z,989.49
2023-01-01T09:54:43.924Z,989.51
2023-01-01T09:55:43.924Z,989.55
2023-01-01T09:56:43.922Z,989.52
2023-01-01T09:57:43.896Z,989.52
2023-01-01T09:58:43.883Z,989.52
2023-01-01T09:59:43.885Z,989.48
2023-01-01T10:00:43.913Z,989.57
2023-01-01T10:01:43.949Z,989.51
2023-01-01T10:02:49.689Z,989.50
2023-01-01T10:03:44.834Z,989.47
2023-01-01T10:04:43.816Z,989.48
2023-01-01T10:05:43.811Z,989.48
2023-01-01T10:06:43.824Z,989.48
2023-01-01T10:07:43.804Z,989.50
2023-01-01T10:08:43.790Z,989.49
2023-01-01T10:09:43.768Z,989.46
2023-01-01T10:10:43.767Z,989.49
2023-01-01T10:11:43.728Z,989.47
2023-01-01T10:12:43.748Z,989.49
2023-01-01T10:13:43.730Z,989.46
2023-01-01T10:14:43.723Z,989.49
2023-01-01T10:15:43.713Z,989.46
2023-01-01T10:16:43.714Z,989.45
2023-01-01T10:17:43.677Z,989.44
2023-01-01T10:18:43.708Z,989.42
2023-01-01T10:19:43.658Z,989.38
2023-01-01T10:20:43.649Z,989.36
2023-01-01T10:21:47.136Z,989.27
2023-01-01T10:22:43.623Z,989.33
2023-01-01T10:23:43.669Z,989.22
2023-01-01T10:24:43.635Z,989.25
2023-01-01T10:25:43.593Z,989.25
2023-01-01T10:26:43.592Z,989.25
2023-01-01T10:27:43.572Z,989.30
2023-01-01T10:28:43.563Z,989.31
2023-01-01T10:29:43.584Z,989.27
2023-01-01T10:30:43.556Z,989.28
2023-01-01T10:31:43.608Z,989.22
2023-01-01T10:32:43.521Z,989.26
2023-01-01T10:33:43.500Z,989.23
2023-01-01T10:34:43.531Z,989.25
2023-01-01T10:35:43.490Z,989.27
2023-01-01T10:36:43.494Z,989.19
2023-01-01T10:37:43.510Z,989.19
2023-01-01T10:38:43.452Z,989.17
2023-01-01T10:39:43.461Z,989.26
2023-01-01T10:40:43.439Z,989.21
2023-01-01T10:41:43.423Z,989.27
2023-01-01T10:42:43.419Z,989.25
2023-01-01T10:43:43.394Z,989.25
2023-01-01T10:44:43.396Z,989.29
2023-01-01T10:45:43.438Z,989.19
2023-01-01T10:46:43.387Z,989.20
2023-01-01T10:47:43.376Z,989.27
2023-01-01T10:48:43.450Z,989.26
2023-01-01T10:49:43.362Z,989.25
2023-01-01T10:50:43.334Z,989.19
2023-01-01T10:51:43.327Z,989.17
2023-01-01T10:52:43.323Z,989.17
2023-01-01T10:53:43.324Z,989.18
2023-01-01T10:54:43.280Z,989.22
2023-01-01T10:55:43.278Z,989.16
2023-01-01T10:56:43.276Z,989.23
2023-01-01T10:57:43.240Z,989.18
2023-01-01T10:58:43.320Z,989.19
2023-01-01T10:59:48.139Z,989.24
2023-01-01T11:00:44.210Z,989.23
2023-01-01T11:01:43.287Z,989.20
2023-01-01T11:02:43.391Z,989.24
2023-01-01T11:03:43.251Z,989.19
2023-01-01T11:04:43.175Z,989.15
2023-01-01T11:05:43.189Z,989.13
2023-01-01T11:06:43.198Z,989.16
2023-01-01T11:07:43.147Z,989.12
2023-01-01T11:08:43.159Z,989.07
2023-01-01T11:10:01.655Z,989.17
2023-01-01T11:10:44.120Z,989.08
2023-01-01T11:11:43.102Z,989.04
2023-01-01T11:13:44.068Z,988.98
2023-01-01T11:14:43.087Z,988.93
2023-01-01T11:15:43.078Z,989.02
2023-01-01T11:16:43.089Z,988.98
2023-01-01T11:17:43.024Z,989.00
2023-01-01T11:18:43.034Z,989.00
2023-01-01T11:19:48.747Z,988.98
2023-01-01T11:20:44.028Z,988.97
2023-01-01T11:21:42.994Z,989.04
2023-01-01T11:22:42.999Z,988.98
2023-01-01T11:23:42.967Z,988.97
2023-01-01T11:24:42.956Z,988.96
2023-01-01T11:25:42.965Z,988.97
2023-01-01T11:26:42.935Z,989.01
2023-01-01T11:27:42.921Z,988.98
2023-01-01T11:28:42.929Z,988.98
2023-01-01T11:29:42.916Z,988.92
2023-01-01T11:30:42.908Z,988.86
2023-01-01T11:31:42.883Z,988.85
2023-01-01T11:32:42.880Z,988.91
2023-01-01T11:33:42.855Z,988.89
2023-01-01T11:34:42.860Z,988.89
2023-01-01T11:35:42.851Z,988.74
2023-01-01T11:36:42.832Z,988.70
2023-01-01T11:37:42.829Z,988.72
2023-01-01T11:38:43.529Z,988.72
2023-01-01T11:39:42.810Z,988.64
2023-01-01T11:40:43.523Z,988.62
2023-01-01T11:41:42.800Z,988.68
2023-01-01T11:42:43.489Z,988.67
2023-01-01T11:43:42.772Z,988.55
2023-01-01T11:44:43.777Z,988.51
2023-01-01T11:45:42.758Z,988.44
2023-01-01T11:46:43.452Z,988.44
2023-01-01T11:47:42.722Z,988.51
2023-01-01T11:48:42.955Z,988.52
2023-01-01T11:49:42.682Z,988.50
2023-01-01T11:50:42.706Z,988.49
2023-01-01T11:51:42.673Z,988.49
2023-01-01T11:52:43.360Z,988.48
2023-01-01T11:53:42.663Z,988.42
2023-01-01T11:54:42.654Z,988.33
2023-01-01T11:55:42.654Z,988.34
2023-01-01T11:56:42.627Z,988.34
2023-01-01T11:57:42.618Z,988.42
2023-01-01T11:58:42.626Z,988.36
2023-01-01T11:59:42.602Z,988.38
2023-01-01T12:00:42.602Z,988.30
2023-01-01T12:01:42.609Z,988.22
2023-01-01T12:02:42.613Z,988.29
2023-01-01T12:03:42.603Z,988.28
2023-01-01T12:04:42.545Z,988.25
2023-01-01T12:05:42.524Z,988.26
2023-01-01T12:06:42.536Z,988.26
2023-01-01T12:07:42.513Z,988.30
2023-01-01T12:08:42.500Z,988.22
2023-01-01T12:09:42.470Z,988.22
2023-01-01T12:10:42.475Z,988.16
2023-01-01T12:11:42.470Z,988.17
2023-01-01T12:12:42.465Z,988.23
2023-01-01T12:13:42.441Z,988.03
2023-01-01T12:14:42.436Z,988.01
2023-01-01T12:15:42.467Z,988.05
2023-01-01T12:16:42.400Z,987.99
2023-01-01T12:17:42.399Z,987.98
2023-01-01T12:18:42.417Z,988.03
2023-01-01T12:19:42.372Z,988.00
2023-01-01T12:20:42.360Z,987.99
2023-01-01T12:21:45.176Z,988.00
2023-01-01T12:22:43.638Z,988.02
2023-01-01T12:23:42.353Z,987.96
2023-01-01T12:24:42.333Z,988.03
2023-01-01T12:25:42.307Z,988.00
2023-01-01T12:26:42.305Z,987.95
2023-01-01T12:27:42.281Z,987.94
2023-01-01T12:28:42.298Z,988.03
2023-01-01T12:29:42.285Z,988.00
2023-01-01T12:30:42.256Z,987.92